Time;durP1;ratioP1;P1;durP2;ratioP2;P2;SDS_P1;SDS_P2;PMS_P1;PMS_P2;Temp;Humidity;BMP_temperature;BMP_pressure;BME280_temperature;BME280_humidity;BME280_pressure;Samples;Min_cycle;Max_cycle;Signal;HPM_P1;HPM_P2
2021/12/02 00:01:12;;;;;;;3.55;1.00;;;19.50;51.30;;;;;;4842778;29;20026;-65
2021/12/02 00:03:38;;;;;;;2.10;0.80;;;19.50;51.30;;;;;;4842770;29;20467;-64
2021/12/02 00:06:09;;;;;;;2.35;0.60;;;19.40;51.30;;;;;;4841536;29;20026;-64
2021/12/02 00:08:35;;;;;;;1.80;0.63;;;19.40;51.40;;;;;;4841478;29;20143;-64
2021/12/02 00:11:01;;;;;;;2.13;0.80;;;19.40;51.40;;;;;;4844949;29;20045;-65
2021/12/02 00:13:29;;;;;;;1.95;0.70;;;19.40;51.50;;;;;;4853654;29;20514;-65
2021/12/02 00:16:20;;;;;;;2.35;0.80;;;19.40;51.40;;;;;;4843465;29;20112;-65
2021/12/02 00:21:20;;;;;;;2.47;1.00;;;19.40;51.40;;;;;;4842754;29;20050;-64
2021/12/02 00:24:07;;;;;;;2.05;0.60;;;19.40;51.40;;;;;;4843253;29;20125;-64
2021/12/02 00:26:36;;;;;;;1.20;0.50;;;19.40;51.30;;;;;;4842849;29;20026;-65
2021/12/02 00:29:06;;;;;;;2.65;0.80;;;19.30;51.40;;;;;;4843730;29;20042;-64
2021/12/02 00:31:34;;;;;;;1.63;0.70;;;19.30;51.30;;;;;;4842115;29;20036;-63
2021/12/02 00:34:05;;;;;;;2.75;0.90;;;19.30;51.30;;;;;;4844536;29;20045;-63
2021/12/02 00:36:34;;;;;;;3.77;0.93;;;19.30;51.30;;;;;;4842879;29;20122;-64
2021/12/02 00:39:04;;;;;;;2.10;0.70;;;19.30;51.20;;;;;;4843153;29;20381;-64
2021/12/02 00:41:30;;;;;;;2.13;0.70;;;19.30;51.10;;;;;;4843543;29;20030;-64
2021/12/02 00:43:57;;;;;;;1.45;0.80;;;19.20;51.00;;;;;;4844815;29;20431;-64
2021/12/02 00:46:25;;;;;;;1.73;0.65;;;19.20;51.00;;;;;;4843692;29;20112;-64
2021/12/02 00:48:51;;;;;;;1.50;0.70;;;19.30;51.00;;;;;;4845012;29;20033;-64
2021/12/02 00:51:19;;;;;;;2.15;0.63;;;19.20;50.90;;;;;;4846984;29;20041;-65
2021/12/02 00:53:51;;;;;;;2.20;0.73;;;19.20;50.80;;;;;;4848557;29;20030;-64
2021/12/02 00:56:20;;;;;;;;;;;19.20;50.80;;;;;;4847343;29;20393;-64
2021/12/02 00:58:48;;;;;;;2.28;0.60;;;19.10;50.60;;;;;;4847684;29;19928;-64
2021/12/02 01:01:16;;;;;;;1.90;0.50;;;19.10;50.90;;;;;;4846974;29;20079;-64
2021/12/02 01:03:43;;;;;;;1.50;0.55;;;19.10;50.90;;;;;;4845407;29;20030;-63
2021/12/02 01:06:09;;;;;;;1.55;0.52;;;19.10;50.80;;;;;;4845520;29;20062;-64
2021/12/02 01:08:36;;;;;;;3.03;0.82;;;19.00;50.70;;;;;;4844678;29;20038;-64
2021/12/02 01:11:03;;;;;;;1.05;0.65;;;19.10;50.70;;;;;;4848445;29;20053;-64
2021/12/02 01:13:29;;;;;;;1.65;0.65;;;19.00;50.60;;;;;;4864251;29;20034;-64
2021/12/02 01:15:55;;;;;;;0.70;0.50;;;19.10;50.60;;;;;;4861444;29;20025;-65
2021/12/02 01:18:22;;;;;;;1.60;0.55;;;19.00;50.50;;;;;;4845671;29;20121;-65
2021/12/02 01:20:50;;;;;;;1.42;0.70;;;19.00;50.50;;;;;;4844605;29;20070;-65
2021/12/02 01:23:17;;;;;;;1.48;0.68;;;19.00;50.50;;;;;;4845884;29;20490;-64
2021/12/02 01:26:01;;;;;;;1.02;0.57;;;19.00;50.40;;;;;;4828516;29;20030;-63
2021/12/02 01:28:27;;;;;;;2.25;0.40;;;19.00;50.30;;;;;;4855699;29;20033;-64
2021/12/02 01:30:54;;;;;;;1.52;0.52;;;18.90;50.30;;;;;;4852140;29;20034;-63
2021/12/02 01:33:21;;;;;;;1.83;0.57;;;19.00;50.30;;;;;;4863569;29;20109;-64
2021/12/02 01:35:54;;;;;;;1.88;0.57;;;18.90;50.20;;;;;;4857369;29;20033;-64
2021/12/02 01:38:23;;;;;;;1.77;0.50;;;18.90;50.30;;;;;;4853088;29;20030;-64
2021/12/02 01:40:50;;;;;;;1.73;0.50;;;18.90;50.20;;;;;;4852748;29;20041;-65
2021/12/02 01:43:18;;;;;;;1.25;0.40;;;18.90;50.20;;;;;;4860634;29;20431;-65
2021/12/02 01:45:44;;;;;;;1.73;0.70;;;18.90;50.30;;;;;;4862854;29;20029;-65
2021/12/02 01:48:15;;;;;;;0.70;0.43;;;18.90;50.20;;;;;;4852678;29;20030;-65
2021/12/02 01:50:43;;;;;;;1.17;0.30;;;18.90;50.20;;;;;;4843933;29;20509;-66
2021/12/02 01:53:14;;;;;;;1.58;0.45;;;18.90;50.20;;;;;;4845249;29;20037;-65
2021/12/02 01:55:43;;;;;;;1.15;0.40;;;18.80;50.10;;;;;;4850441;29;20047;-63
2021/12/02 01:58:17;;;;;;;0.45;0.30;;;18.80;50.10;;;;;;4832978;29;20025;-64
2021/12/02 02:00:44;;;;;;;1.92;0.60;;;18.80;50.10;;;;;;4844029;29;20022;-64
2021/12/02 02:03:12;;;;;;;1.52;0.50;;;18.80;50.10;;;;;;4844502;29;20038;-64
2021/12/02 02:05:38;;;;;;;1.23;0.43;;;18.80;50.10;;;;;;4844809;29;20034;-64
2021/12/02 02:08:10;;;;;;;1.20;0.40;;;18.80;50.10;;;;;;4849737;29;20029;-64
2021/12/02 02:10:39;;;;;;;1.60;0.40;;;18.70;50.00;;;;;;4853719;29;20049;-64
2021/12/02 02:13:08;;;;;;;1.38;0.38;;;18.70;50.00;;;;;;4855471;29;20030;-64
2021/12/02 02:15:35;;;;;;;0.90;0.40;;;18.70;50.10;;;;;;4844490;29;20044;-64
2021/12/02 02:18:13;;;;;;;2.08;0.60;;;18.70;50.00;;;;;;4844098;29;20094;-65
2021/12/02 02:21:01;;;;;;;1.00;0.52;;;18.70;50.00;;;;;;4846074;29;20105;-65
2021/12/02 02:23:29;;;;;;;1.33;0.40;;;18.70;50.00;;;;;;4845423;29;20034;-65
2021/12/02 02:25:56;;;;;;;1.45;0.40;;;18.60;50.00;;;;;;4845337;29;20050;-65
2021/12/02 02:28:22;;;;;;;1.95;0.40;;;18.60;50.00;;;;;;4827843;29;20452;-65
2021/12/02 02:30:48;;;;;;;1.20;0.43;;;18.60;50.00;;;;;;4851052;29;20038;-65
2021/12/02 02:33:17;;;;;;;1.45;0.30;;;18.60;50.00;;;;;;4845086;29;20099;-65
2021/12/02 02:35:43;;;;;;;1.23;0.65;;;18.60;50.00;;;;;;4855272;29;20081;-65
2021/12/02 02:38:10;;;;;;;1.20;0.38;;;18.60;50.90;;;;;;4854152;29;20037;-65
2021/12/02 02:40:38;;;;;;;0.30;0.20;;;18.50;49.90;;;;;;4845375;29;20049;-65
2021/12/02 02:43:07;;;;;;;1.35;0.50;;;18.50;49.90;;;;;;4844499;29;20030;-65
2021/12/02 02:45:34;;;;;;;0.73;0.40;;;18.50;49.90;;;;;;4844968;29;20391;-64
2021/12/02 02:48:00;;;;;;;0.88;0.20;;;18.50;49.90;;;;;;4844534;29;20050;-65
2021/12/02 02:50:26;;;;;;;0.85;0.32;;;18.50;49.90;;;;;;4844156;29;20037;-65
2021/12/02 02:53:05;;;;;;;1.13;0.43;;;18.50;49.90;;;;;;4843942;29;20038;-65
2021/12/02 02:55:33;;;;;;;0.55;0.30;;;18.50;49.80;;;;;;4844738;29;20053;-65
2021/12/02 02:58:12;;;;;;;0.63;0.25;;;18.50;49.90;;;;;;4847490;29;20040;-64
2021/12/02 03:00:47;;;;;;;1.40;0.40;;;18.40;49.80;;;;;;4844801;29;20386;-65
2021/12/02 03:06:27;;;;;;;0.63;0.20;;;18.40;50.00;;;;;;4843649;29;20038;-63
2021/12/02 03:08:53;;;;;;;1.27;0.30;;;18.40;50.00;;;;;;4837740;29;20037;-64
2021/12/02 03:11:19;;;;;;;0.57;0.20;;;18.40;50.00;;;;;;4847224;29;20054;-63
2021/12/02 03:13:50;;;;;;;0.98;0.20;;;18.40;50.00;;;;;;4852837;29;20486;-64
2021/12/02 03:19:01;;;;;;;1.75;0.40;;;18.40;50.00;;;;;;4843614;29;20057;-63
2021/12/02 03:21:28;;;;;;;0.70;0.20;;;18.30;49.90;;;;;;4842897;29;20041;-63
2021/12/02 03:23:59;;;;;;;0.50;0.30;;;18.30;49.90;;;;;;4855490;29;20393;-63
2021/12/02 03:26:26;;;;;;;0.73;0.28;;;18.30;49.90;;;;;;4852431;29;20036;-63
2021/12/02 03:28:53;;;;;;;0.90;0.30;;;18.30;49.90;;;;;;4860448;29;20037;-63
2021/12/02 03:31:19;;;;;;;1.63;0.40;;;18.30;49.90;;;;;;4842755;29;20034;-63
2021/12/02 03:33:46;;;;;;;1.20;0.30;;;18.30;49.90;;;;;;4843782;29;20125;-63
2021/12/02 03:36:14;;;;;;;1.33;0.30;;;18.30;49.90;;;;;;4843281;29;20490;-63
2021/12/02 03:38:40;;;;;;;0.75;0.30;;;18.30;49.90;;;;;;4842433;29;20128;-63
2021/12/02 03:41:06;;;;;;;0.50;0.20;;;18.30;49.90;;;;;;4842906;29;20554;-63
2021/12/02 03:43:39;;;;;;;0.75;0.22;;;18.30;49.90;;;;;;4844464;29;20391;-63
2021/12/02 03:46:06;;;;;;;1.30;0.25;;;18.30;49.80;;;;;;4842959;29;20121;-65
2021/12/02 03:48:33;;;;;;;1.15;0.40;;;18.30;49.90;;;;;;4843852;29;20022;-65
2021/12/02 03:50:59;;;;;;;0.30;0.15;;;18.30;49.90;;;;;;4842898;29;20397;-66
2021/12/02 03:53:25;;;;;;;0.85;0.30;;;18.20;49.80;;;;;;4843443;29;20517;-65
2021/12/02 03:55:50;;;;;;;0.65;0.20;;;18.20;49.80;;;;;;4846068;29;20065;-65
2021/12/02 03:58:17;;;;;;;0.82;0.43;;;18.20;49.80;;;;;;4855672;29;20048;-65
2021/12/02 04:00:43;;;;;;;1.15;0.20;;;18.20;49.80;;;;;;4827089;29;20067;-65
2021/12/02 04:03:08;;;;;;;0.52;0.30;;;18.20;49.80;;;;;;4844820;29;20027;-63
2021/12/02 04:05:34;;;;;;;0.47;0.20;;;18.20;49.80;;;;;;4844219;29;20090;-63
2021/12/02 04:08:00;;;;;;;0.98;0.30;;;18.20;50.80;;;;;;4845812;29;20030;-63
2021/12/02 04:10:26;;;;;;;0.63;0.28;;;18.20;49.80;;;;;;4847168;29;20471;-63
2021/12/02 04:13:15;;;;;;;1.42;0.35;;;18.10;49.80;;;;;;4853886;29;20034;-63
2021/12/02 04:15:41;;;;;;;1.40;0.28;;;18.10;49.80;;;;;;4842228;29;20121;-63
2021/12/02 04:18:07;;;;;;;0.70;0.20;;;18.10;49.80;;;;;;4849970;29;20049;-63
2021/12/02 04:20:33;;;;;;;2.60;0.40;;;18.10;49.80;;;;;;4842817;29;20081;-63
2021/12/02 04:22:59;;;;;;;0.40;0.13;;;18.10;49.90;;;;;;4843555;29;20037;-63
2021/12/02 04:25:26;;;;;;;0.28;0.15;;;18.10;49.80;;;;;;4844848;29;20034;-63
2021/12/02 04:27:53;;;;;;;1.20;0.45;;;18.10;49.80;;;;;;4846837;29;20037;-65
2021/12/02 04:30:24;;;;;;;1.42;0.43;;;18.10;49.90;;;;;;4846598;29;20060;-65
2021/12/02 04:32:50;;;;;;;1.73;0.20;;;18.00;49.80;;;;;;4846583;29;20038;-65
2021/12/02 04:35:16;;;;;;;1.85;0.50;;;18.10;49.90;;;;;;4847049;29;20041;-65
2021/12/02 04:37:44;;;;;;;0.47;0.25;;;18.10;49.90;;;;;;4846075;29;20534;-65
2021/12/02 04:40:12;;;;;;;2.15;0.35;;;18.00;49.80;;;;;;4846680;29;20037;-65
2021/12/02 04:42:38;;;;;;;1.75;0.30;;;18.00;49.80;;;;;;4847190;29;20034;-65
2021/12/02 04:45:05;;;;;;;0.43;0.10;;;18.00;49.80;;;;;;4848379;29;20478;-65
2021/12/02 04:47:31;;;;;;;0.50;0.20;;;18.00;49.80;;;;;;4846767;29;20087;-65
2021/12/02 04:49:56;;;;;;;1.00;0.20;;;18.00;49.80;;;;;;4847105;29;20030;-65
2021/12/02 04:52:22;;;;;;;0.98;0.30;;;18.00;49.80;;;;;;4846835;29;20041;-65
2021/12/02 04:54:48;;;;;;;0.40;0.15;;;17.90;49.80;;;;;;4847808;29;20142;-65
2021/12/02 04:57:13;;;;;;;0.50;0.20;;;18.00;49.90;;;;;;4846437;29;20448;-64
2021/12/02 04:59:39;;;;;;;0.55;0.20;;;18.00;49.80;;;;;;4846086;29;20049;-63
2021/12/02 05:02:05;;;;;;;1.02;0.22;;;17.90;49.80;;;;;;4846367;29;20045;-65
2021/12/02 05:04:30;;;;;;;0.50;0.30;;;17.90;49.80;;;;;;4846434;29;20038;-65
2021/12/02 05:06:56;;;;;;;1.55;0.10;;;17.90;49.80;;;;;;4845860;29;20030;-65
2021/12/02 05:09:22;;;;;;;1.05;0.30;;;17.90;49.80;;;;;;4851976;29;20515;-63
2021/12/02 05:11:48;;;;;;;0.73;0.10;;;17.90;49.80;;;;;;4856846;29;20401;-63
2021/12/02 05:14:13;;;;;;;0.50;0.10;;;17.90;49.90;;;;;;4851295;29;20121;-63
2021/12/02 05:16:40;;;;;;;0.40;0.20;;;17.90;49.90;;;;;;4852349;29;20030;-63
2021/12/02 05:19:06;;;;;;;1.25;0.20;;;17.90;49.80;;;;;;4851996;29;20475;-63
2021/12/02 05:21:32;;;;;;;1.05;0.20;;;17.80;49.80;;;;;;4846362;29;20113;-63
2021/12/02 05:23:57;;;;;;;0.57;0.10;;;17.90;49.80;;;;;;4845363;29;20073;-63
2021/12/02 05:26:25;;;;;;;0.30;0.10;;;17.90;49.90;;;;;;4841375;29;20063;-63
2021/12/02 05:28:52;;;;;;;0.65;0.10;;;17.80;49.80;;;;;;4846357;29;20089;-65
2021/12/02 05:31:17;;;;;;;0.77;0.10;;;17.80;49.80;;;;;;4844805;29;20113;-65
2021/12/02 05:33:43;;;;;;;0.40;0.30;;;17.80;49.80;;;;;;4829479;29;20079;-64
2021/12/02 05:36:09;;;;;;;0.35;0.10;;;17.80;49.80;;;;;;4845461;29;20042;-64
2021/12/02 05:38:35;;;;;;;1.00;0.22;;;17.70;49.80;;;;;;4845800;29;20038;-64
2021/12/02 05:41:02;;;;;;;0.43;0.10;;;17.80;49.80;;;;;;4846222;29;20379;-65
2021/12/02 05:43:28;;;;;;;0.60;0.10;;;17.70;49.80;;;;;;4846781;29;20022;-64
2021/12/02 05:45:54;;;;;;;0.65;0.20;;;17.80;50.80;;;;;;4845420;29;20034;-65
2021/12/02 05:48:19;;;;;;;0.13;0.10;;;17.70;49.80;;;;;;4846275;29;20487;-65
2021/12/02 05:50:45;;;;;;;0.70;0.10;;;17.70;49.80;;;;;;4844991;29;20091;-65
2021/12/02 05:53:11;;;;;;;0.77;0.15;;;17.70;49.80;;;;;;4846009;29;20038;-65
2021/12/02 05:55:36;;;;;;;0.95;0.10;;;17.70;49.80;;;;;;4857255;29;20083;-64
2021/12/02 05:58:02;;;;;;;0.22;0.10;;;17.70;49.80;;;;;;4845195;29;20502;-64
2021/12/02 06:00:28;;;;;;;0.43;0.08;;;17.70;49.80;;;;;;4844468;29;20062;-65
2021/12/02 06:02:53;;;;;;;0.50;0.20;;;17.70;49.80;;;;;;4844414;29;20038;-64
2021/12/02 06:05:20;;;;;;;0.80;0.17;;;17.70;49.80;;;;;;4831577;29;20436;-63
2021/12/02 06:07:51;;;;;;;1.20;0.13;;;17.60;49.70;;;;;;4849410;29;20037;-64
2021/12/02 06:10:17;;;;;;;1.50;0.20;;;17.60;49.70;;;;;;4843683;29;20117;-64
2021/12/02 06:12:43;;;;;;;1.33;0.38;;;17.60;49.70;;;;;;4859226;29;20117;-64
2021/12/02 06:15:10;;;;;;;0.88;0.20;;;17.60;49.70;;;;;;4855587;29;20136;-64
2021/12/02 06:17:38;;;;;;;0.68;0.10;;;17.60;49.80;;;;;;4845570;29;20029;-65
2021/12/02 06:20:06;;;;;;;0.60;0.28;;;17.60;49.70;;;;;;4845400;29;20037;-65
2021/12/02 06:22:32;;;;;;;0.80;0.10;;;17.60;49.80;;;;;;4844409;29;20034;-63
2021/12/02 06:27:39;;;;;;;0.38;0.10;;;17.60;49.80;;;;;;4847892;29;20061;-63
2021/12/02 06:30:05;;;;;;;0.52;0.10;;;17.60;49.80;;;;;;4844342;29;20034;-63
2021/12/02 06:32:31;;;;;;;0.28;0.10;;;17.50;49.80;;;;;;4845239;29;20091;-63
2021/12/02 06:34:57;;;;;;;1.05;0.20;;;17.50;49.80;;;;;;4844961;29;20034;-63
2021/12/02 06:37:23;;;;;;;1.38;0.30;;;17.50;49.80;;;;;;4851810;29;20083;-63
2021/12/02 06:39:49;;;;;;;0.68;0.10;;;17.50;49.80;;;;;;4846820;29;20037;-63
2021/12/02 06:42:15;;;;;;;0.63;0.10;;;17.50;49.80;;;;;;4845161;29;20027;-63
2021/12/02 06:44:41;;;;;;;1.75;0.20;;;17.50;49.80;;;;;;4844177;29;20386;-63
2021/12/02 06:47:06;;;;;;;0.22;0.10;;;17.50;49.80;;;;;;4844525;29;20509;-64
2021/12/02 06:49:33;;;;;;;1.20;0.20;;;17.50;49.80;;;;;;4828136;29;20410;-65
2021/12/02 06:51:59;;;;;;;0.38;0.20;;;17.50;49.80;;;;;;4844530;29;20038;-65
2021/12/02 06:54:25;;;;;;;0.22;0.20;;;17.50;49.80;;;;;;4844867;29;20039;-65
2021/12/02 06:56:52;;;;;;;0.85;0.20;;;17.50;49.80;;;;;;4843622;29;20063;-64
2021/12/02 06:59:19;;;;;;;0.00;0.00;;;17.50;49.80;;;;;;4843939;29;20121;-63
2021/12/02 07:01:45;;;;;;;0.40;0.13;;;17.50;50.80;;;;;;4847969;29;20039;-63
2021/12/02 07:04:11;;;;;;;0.63;0.20;;;17.40;49.80;;;;;;4843943;29;20033;-64
2021/12/02 07:06:38;;;;;;;0.45;0.20;;;17.40;49.80;;;;;;4847350;29;20034;-64
2021/12/02 07:09:05;;;;;;;0.75;0.10;;;17.40;49.80;;;;;;4842670;29;20038;-64
2021/12/02 07:11:31;;;;;;;0.15;0.10;;;17.40;49.80;;;;;;4847297;29;20049;-64
2021/12/02 07:14:01;;;;;;;0.65;0.20;;;17.40;49.80;;;;;;4844837;29;20030;-64
2021/12/02 07:16:27;;;;;;;0.63;0.10;;;17.40;49.90;;;;;;4843930;29;20390;-64
2021/12/02 07:18:57;;;;;;;0.85;0.20;;;17.40;49.80;;;;;;4843780;29;20098;-64
2021/12/02 07:21:24;;;;;;;0.30;0.10;;;17.40;49.80;;;;;;4843406;29;20066;-64
2021/12/02 07:23:51;;;;;;;0.40;0.20;;;17.30;49.90;;;;;;4844638;29;20064;-65
2021/12/02 07:26:17;;;;;;;0.98;0.10;;;17.30;49.80;;;;;;4842529;29;20038;-64
2021/12/02 07:28:47;;;;;;;0.40;0.10;;;17.30;49.90;;;;;;4827221;29;20038;-64
2021/12/02 07:31:13;;;;;;;1.63;0.30;;;17.30;49.90;;;;;;4845808;29;20050;-64
2021/12/02 07:33:42;;;;;;;0.45;0.20;;;17.30;49.90;;;;;;4843374;29;20089;-63
2021/12/02 07:36:08;;;;;;;0.68;0.10;;;17.30;49.90;;;;;;4827805;29;20109;-65
2021/12/02 07:38:37;;;;;;;0.10;0.10;;;17.30;49.90;;;;;;4843274;29;20122;-62
2021/12/02 07:41:05;;;;;;;0.60;0.38;;;17.30;50.00;;;;;;4853036;29;20086;-60
2021/12/02 07:43:35;;;;;;;0.85;0.50;;;17.20;48.60;;;;;;4843923;29;20014;-60
2021/12/02 07:46:02;;;;;;;0.98;0.57;;;16.90;47.40;;;;;;4843261;29;20407;-60
2021/12/02 07:48:28;;;;;;;1.45;0.60;;;16.40;47.20;;;;;;4844690;29;20030;-58
2021/12/02 07:50:55;;;;;;;0.95;0.50;;;16.10;47.90;;;;;;4846385;29;20037;-58
2021/12/02 07:53:26;;;;;;;4.13;0.43;;;15.80;47.90;;;;;;4847838;29;20041;-58
2021/12/02 07:55:53;;;;;;;0.55;0.40;;;15.50;48.40;;;;;;4842441;29;20107;-59
2021/12/02 07:58:21;;;;;;;0.60;0.40;;;15.30;48.60;;;;;;4850815;29;20028;-64
2021/12/02 08:00:47;;;;;;;2.10;0.75;;;15.10;48.80;;;;;;4842445;29;20026;-63
2021/12/02 08:03:13;;;;;;;6.70;1.10;;;15.00;48.90;;;;;;4842744;29;20090;-64
2021/12/02 08:05:40;;;;;;;2.38;0.90;;;14.80;48.80;;;;;;4842421;29;20061;-59
2021/12/02 08:08:06;;;;;;;2.25;0.55;;;14.60;49.20;;;;;;4844750;29;20041;-61
2021/12/02 08:10:32;;;;;;;1.02;0.45;;;14.50;50.70;;;;;;4854101;29;20045;-60
2021/12/02 08:13:00;;;;;;;1.13;0.30;;;14.60;51.40;;;;;;4856578;29;20050;-60
2021/12/02 08:15:27;;;;;;;1.42;0.40;;;14.80;51.80;;;;;;4843653;29;20026;-60
2021/12/02 08:17:54;;;;;;;0.40;0.20;;;15.00;51.80;;;;;;4854235;29;20493;-60
2021/12/02 08:20:22;;;;;;;0.85;0.30;;;15.20;51.80;;;;;;4844080;29;20033;-60
2021/12/02 08:22:48;;;;;;;0.93;0.32;;;15.40;51.70;;;;;;4844434;29;20026;-60
2021/12/02 08:25:15;;;;;;;2.28;0.22;;;15.50;51.40;;;;;;4843480;29;20395;-60
2021/12/02 08:27:42;;;;;;;0.52;0.20;;;15.60;51.40;;;;;;4844325;29;20038;-61
2021/12/02 08:30:11;;;;;;;0.63;0.20;;;15.80;51.50;;;;;;4846815;29;20023;-60
2021/12/02 08:32:40;;;;;;;1.15;0.30;;;15.90;51.40;;;;;;4842960;29;20061;-60
2021/12/02 08:35:06;;;;;;;2.08;0.30;;;16.10;51.30;;;;;;4842881;29;20113;-60
2021/12/02 08:37:34;;;;;;;1.33;0.13;;;16.30;51.10;;;;;;4843290;29;20053;-60
2021/12/02 08:40:01;;;;;;;0.70;0.20;;;16.40;50.90;;;;;;4854179;29;20029;-60
2021/12/02 08:42:32;;;;;;;1.33;0.22;;;16.60;50.70;;;;;;4848696;29;20374;-60
2021/12/02 08:44:59;;;;;;;0.32;0.10;;;16.70;50.40;;;;;;4860802;29;20034;-60
2021/12/02 08:47:27;;;;;;;1.48;0.30;;;16.90;50.20;;;;;;4855038;29;20050;-60
2021/12/02 08:49:53;;;;;;;1.50;0.30;;;17.00;49.90;;;;;;4855051;29;20367;-60
2021/12/02 08:52:24;;;;;;;0.75;0.28;;;17.20;49.70;;;;;;4842719;29;20105;-61
2021/12/02 08:54:51;;;;;;;1.52;0.35;;;17.30;49.50;;;;;;4848522;29;20026;-61
2021/12/02 08:57:21;;;;;;;1.50;0.22;;;17.50;49.20;;;;;;4844395;29;20187;-60
2021/12/02 08:59:48;;;;;;;0.75;0.30;;;17.60;49.80;;;;;;4842544;29;20034;-60
2021/12/02 09:02:14;;;;;;;1.20;0.20;;;17.70;48.60;;;;;;4847352;29;21651;-60
2021/12/02 09:04:40;;;;;;;0.85;0.30;;;17.80;48.60;;;;;;4852453;29;20029;-60
2021/12/02 09:07:06;;;;;;;1.30;0.22;;;17.90;48.60;;;;;;4842508;29;20052;-61
2021/12/02 09:09:32;;;;;;;1.40;0.20;;;18.00;48.40;;;;;;4851252;29;20032;-60
2021/12/02 09:11:58;;;;;;;0.68;0.20;;;18.00;48.30;;;;;;4854201;29;20481;-60
2021/12/02 09:14:24;;;;;;;2.53;0.43;;;18.10;48.20;;;;;;4852674;29;20036;-60
2021/12/02 09:16:51;;;;;;;2.05;0.52;;;18.20;48.00;;;;;;4845614;29;20034;-61
2021/12/02 09:19:20;;;;;;;2.03;0.40;;;18.30;48.10;;;;;;4845841;29;20108;-61
2021/12/02 09:21:47;;;;;;;1.20;0.30;;;18.30;48.30;;;;;;4846231;29;20387;-61
2021/12/02 09:24:13;;;;;;;2.33;0.50;;;18.30;48.10;;;;;;4857753;29;20034;-61
2021/12/02 09:26:39;;;;;;;2.47;0.43;;;18.40;48.00;;;;;;4846520;29;20041;-61
2021/12/02 09:29:05;;;;;;;1.85;0.40;;;18.40;48.00;;;;;;4862053;29;20037;-60
2021/12/02 09:31:31;;;;;;;1.25;0.40;;;18.50;47.80;;;;;;4858656;29;20374;-60
2021/12/02 09:33:58;;;;;;;1.33;0.60;;;18.60;47.90;;;;;;4851210;29;20474;-60
2021/12/02 09:36:24;;;;;;;2.70;0.50;;;18.70;47.50;;;;;;4863266;29;20089;-60
2021/12/02 09:38:49;;;;;;;3.60;0.30;;;18.80;47.10;;;;;;4863037;29;20048;-60
2021/12/02 09:41:15;;;;;;;2.38;0.50;;;18.90;47.00;;;;;;4863818;29;20034;-60
2021/12/02 09:43:41;;;;;;;1.83;0.70;;;18.90;46.70;;;;;;4851529;29;20396;-60
2021/12/02 09:46:07;;;;;;;2.45;0.70;;;19.00;46.40;;;;;;4854972;29;20041;-60
2021/12/02 09:48:34;;;;;;;1.23;0.47;;;19.00;46.20;;;;;;4863357;29;20052;-60
2021/12/02 09:51:19;;;;;;;0.75;0.25;;;19.10;46.00;;;;;;4863705;29;20029;-60
2021/12/02 09:53:55;;;;;;;3.17;0.70;;;19.20;45.60;;;;;;4862865;29;20038;-60
2021/12/02 09:56:25;;;;;;;1.42;0.50;;;19.30;45.40;;;;;;4862714;29;20520;-60
2021/12/02 09:58:53;;;;;;;0.95;0.50;;;19.30;45.30;;;;;;4851461;29;20026;-61
2021/12/02 10:01:22;;;;;;;2.33;0.70;;;19.40;45.20;;;;;;4859873;29;20030;-60
2021/12/02 10:03:53;;;;;;;1.42;0.50;;;19.50;46.00;;;;;;4862722;29;20030;-61
2021/12/02 10:06:29;;;;;;;3.85;0.70;;;19.60;45.10;;;;;;4848681;29;20547;-60
2021/12/02 10:08:57;;;;;;;4.60;0.70;;;19.60;46.40;;;;;;4844649;29;20030;-60
2021/12/02 10:11:28;;;;;;;2.75;1.00;;;19.70;47.70;;;;;;4857188;29;20053;-60
2021/12/02 10:14:02;;;;;;;4.47;0.90;;;19.80;48.30;;;;;;4864049;29;20033;-60
2021/12/02 10:16:32;;;;;;;2.83;0.73;;;19.80;48.00;;;;;;4852787;29;20153;-61
2021/12/02 10:19:04;;;;;;;2.28;0.60;;;19.90;48.00;;;;;;4861822;29;20042;-61
2021/12/02 10:21:39;;;;;;;3.42;0.60;;;20.00;47.70;;;;;;4868072;29;20026;-61
2021/12/02 10:24:10;;;;;;;1.73;0.50;;;20.10;47.60;;;;;;4854630;29;20082;-60
2021/12/02 10:26:51;;;;;;;1.23;0.50;;;20.20;47.40;;;;;;4857183;29;20030;-61
2021/12/02 10:29:47;;;;;;;2.33;0.60;;;20.20;47.20;;;;;;4852180;29;20030;-61
2021/12/02 10:32:21;;;;;;;0.95;0.30;;;20.30;46.80;;;;;;4845940;29;20053;-60
2021/12/02 10:35:01;;;;;;;1.90;0.50;;;20.40;46.80;;;;;;4846680;29;20034;-61
2021/12/02 10:37:30;;;;;;;1.02;0.40;;;20.50;46.60;;;;;;4849477;29;20389;-61
2021/12/02 10:40:02;;;;;;;1.25;0.30;;;20.50;46.40;;;;;;4853574;29;20033;-61
2021/12/02 10:42:30;;;;;;;1.88;0.38;;;20.60;46.30;;;;;;4859325;29;20379;-61
2021/12/02 10:44:58;;;;;;;2.10;0.52;;;20.70;46.10;;;;;;4847558;29;20022;-61
2021/12/02 10:47:24;;;;;;;1.55;0.43;;;20.70;45.80;;;;;;4849479;29;20057;-61
2021/12/02 10:49:56;;;;;;;1.25;0.35;;;20.80;45.70;;;;;;4849560;29;20034;-62
2021/12/02 10:52:30;;;;;;;1.02;0.43;;;20.90;45.60;;;;;;4853728;29;20368;-61
2021/12/02 10:54:58;;;;;;;1.85;0.40;;;20.90;45.50;;;;;;4854137;29;20062;-61
2021/12/02 10:57:26;;;;;;;0.57;0.38;;;20.90;45.40;;;;;;4855522;29;20068;-60
2021/12/02 11:00:12;;;;;;;0.73;0.30;;;21.00;45.30;;;;;;4853759;29;20037;-61
2021/12/02 11:02:43;;;;;;;1.38;0.52;;;21.00;44.90;;;;;;4848208;29;20063;-61
2021/12/02 11:05:19;;;;;;;0.77;0.30;;;21.10;45.00;;;;;;4847640;29;20478;-59
2021/12/02 11:07:52;;;;;;;1.17;0.40;;;21.10;45.00;;;;;;4845890;29;20034;-62
2021/12/02 11:10:18;;;;;;;1.27;0.30;;;21.10;44.80;;;;;;4845273;29;20041;-61
2021/12/02 11:12:48;;;;;;;0.57;0.22;;;21.10;44.90;;;;;;4859724;29;20037;-61
2021/12/02 11:15:13;;;;;;;1.17;0.30;;;21.10;44.80;;;;;;4853521;29;20026;-61
2021/12/02 11:17:49;;;;;;;1.23;0.30;;;21.20;44.70;;;;;;4851211;29;20044;-61
2021/12/02 11:20:24;;;;;;;0.93;0.17;;;21.20;44.60;;;;;;4854255;29;20498;-61
2021/12/02 11:22:58;;;;;;;1.10;0.50;;;21.20;44.50;;;;;;4861041;29;20066;-61
2021/12/02 11:25:24;;;;;;;1.98;0.38;;;21.20;44.00;;;;;;4849030;29;20026;-61
2021/12/02 11:27:51;;;;;;;1.85;0.50;;;21.20;43.80;;;;;;4848947;29;20034;-61
2021/12/02 11:30:21;;;;;;;3.33;0.40;;;21.20;43.80;;;;;;4859701;29;20029;-61
2021/12/02 11:32:51;;;;;;;1.77;0.30;;;21.20;43.90;;;;;;4858331;29;20486;-60
2021/12/02 11:35:22;;;;;;;0.70;0.40;;;21.20;44.10;;;;;;4857653;29;20101;-61
2021/12/02 11:37:54;;;;;;;2.20;0.60;;;21.20;44.10;;;;;;4857714;29;20037;-61
2021/12/02 11:40:29;;;;;;;0.93;0.30;;;21.20;44.10;;;;;;4847283;29;20109;-61
2021/12/02 11:42:55;;;;;;;2.15;0.28;;;21.20;44.10;;;;;;4845122;29;20041;-61
2021/12/02 11:45:24;;;;;;;1.33;0.30;;;21.20;44.10;;;;;;4844580;29;21363;-61
2021/12/02 11:47:51;;;;;;;0.80;0.30;;;21.20;44.10;;;;;;4852393;29;20029;-61
2021/12/02 11:50:18;;;;;;;1.40;0.20;;;21.20;44.00;;;;;;4858445;29;20074;-61
2021/12/02 11:52:44;;;;;;;1.17;0.50;;;21.20;44.00;;;;;;4854724;29;20028;-61
2021/12/02 11:55:20;;;;;;;1.83;0.70;;;21.20;44.00;;;;;;4857687;29;20038;-61
2021/12/02 11:57:48;;;;;;;1.40;0.60;;;21.30;44.00;;;;;;4859031;29;20365;-61
2021/12/02 12:00:17;;;;;;;1.33;0.73;;;21.20;44.20;;;;;;4834998;29;20538;-61
2021/12/02 12:03:03;;;;;;;2.33;0.47;;;21.20;44.40;;;;;;4848935;29;20022;-61
2021/12/02 12:05:37;;;;;;;1.23;0.43;;;21.30;44.60;;;;;;4848091;29;20067;-61
2021/12/02 12:08:04;;;;;;;0.73;0.50;;;21.30;44.50;;;;;;4849621;29;20060;-61
2021/12/02 12:10:34;;;;;;;1.40;0.50;;;21.20;44.00;;;;;;4848012;29;20050;-61
2021/12/02 12:13:12;;;;;;;2.78;0.50;;;21.20;44.10;;;;;;4857180;29;20083;-61
2021/12/02 12:15:47;;;;;;;3.20;0.70;;;21.20;43.80;;;;;;4845496;29;20033;-61
2021/12/02 12:18:39;;;;;;;1.15;0.40;;;21.20;44.10;;;;;;4845178;29;20025;-61
2021/12/02 12:21:12;;;;;;;1.00;0.50;;;21.20;44.10;;;;;;4845274;29;20022;-61
2021/12/02 12:23:57;;;;;;;2.30;0.40;;;21.10;44.40;;;;;;4844433;29;20059;-61
2021/12/02 12:26:30;;;;;;;3.75;0.60;;;21.20;44.40;;;;;;4852736;29;20037;-62
2021/12/02 12:29:05;;;;;;;0.95;0.40;;;21.10;45.20;;;;;;4851798;29;20030;-62
2021/12/02 12:31:41;;;;;;;2.45;0.38;;;21.20;45.20;;;;;;4852330;29;20022;-62
2021/12/02 12:36:55;;;;;;;1.67;0.60;;;21.20;45.00;;;;;;4849100;29;20058;-63
2021/12/02 12:39:24;;;;;;;1.58;0.40;;;21.10;45.10;;;;;;4848616;29;20078;-61
2021/12/02 12:42:12;;;;;;;1.95;0.50;;;21.10;45.00;;;;;;4833330;29;20041;-62
2021/12/02 12:44:58;;;;;;;1.90;0.47;;;21.10;45.00;;;;;;4849138;29;20129;-61
2021/12/02 12:47:45;;;;;;;1.90;0.32;;;21.20;45.00;;;;;;4850424;29;20034;-61
2021/12/02 12:50:52;;;;;;;1.10;0.47;;;21.20;45.00;;;;;;4850669;29;20120;-61
2021/12/02 12:53:19;;;;;;;1.45;0.38;;;21.10;45.00;;;;;;4841805;29;20049;-62
2021/12/02 12:55:54;;;;;;;1.40;0.32;;;21.10;45.10;;;;;;4855684;29;20558;-62
2021/12/02 12:58:23;;;;;;;2.20;0.50;;;21.20;45.00;;;;;;4849798;29;20034;-61
2021/12/02 13:00:57;;;;;;;1.45;0.22;;;21.10;44.80;;;;;;4859157;29;20055;-62
2021/12/02 13:03:31;;;;;;;2.40;0.50;;;21.20;44.60;;;;;;4850897;29;20026;-62
2021/12/02 13:06:08;;;;;;;0.70;0.28;;;21.20;44.60;;;;;;4847308;29;20030;-62
2021/12/02 13:08:44;;;;;;;0.25;0.20;;;21.20;44.50;;;;;;4851296;29;20106;-61
2021/12/02 13:11:24;;;;;;;0.75;0.30;;;21.20;44.60;;;;;;4848192;29;20132;-61